createdAt,value
2018-11-26T00:00:33.713Z,97.45
2018-11-26T00:03:03.430Z,96.71
2018-11-26T00:05:33.122Z,95.71
2018-11-26T00:08:02.917Z,95.81
2018-11-26T00:10:43.728Z,95.65
2018-11-26T00:13:13.958Z,95.34
2018-11-26T00:15:43.671Z,95.07
2018-11-26T00:18:13.531Z,94.67
2018-11-26T00:20:43.200Z,94.61
2018-11-26T00:23:12.922Z,94.63
2018-11-26T00:25:42.808Z,94.46
2018-11-26T00:28:12.627Z,93.70
2018-11-26T00:30:42.363Z,94.24
2018-11-26T00:33:12.536Z,94.16
2018-11-26T00:35:42.612Z,94.18
2018-11-26T00:38:12.957Z,93.05
2018-11-26T00:40:43.112Z,93.78
2018-11-26T00:43:13.213Z,93.87
2018-11-26T00:45:43.150Z,93.30
2018-11-26T00:48:13.822Z,94.10
2018-11-26T00:50:44.111Z,93.31
2018-11-26T00:53:14.347Z,93.58
2018-11-26T00:55:44.617Z,93.42
2018-11-26T00:58:14.687Z,93.58
2018-11-26T01:00:45.464Z,92.47
2018-11-26T01:03:15.830Z,92.52
2018-11-26T01:05:46.280Z,94.06
2018-11-26T01:08:16.756Z,94.97
2018-11-26T01:10:47.319Z,95.06
2018-11-26T01:13:17.659Z,95.41
2018-11-26T01:15:48.010Z,94.93
2018-11-26T01:18:18.317Z,95.01
2018-11-26T01:20:48.557Z,96.70
2018-11-26T01:23:19.553Z,96.92
2018-11-26T01:25:50.030Z,97.52
2018-11-26T01:28:20.337Z,96.95
2018-11-26T01:30:50.527Z,97.51
2018-11-26T01:33:20.689Z,98.32
2018-11-26T01:35:51.102Z,98.73
2018-11-26T01:38:22.201Z,98.15
2018-11-26T01:40:53.092Z,96.98
2018-11-26T01:43:23.250Z,97.24
2018-11-26T01:45:53.527Z,96.58
2018-11-26T01:48:23.968Z,96.08
2018-11-26T01:50:54.121Z,96.56
2018-11-26T01:53:24.300Z,96.61
2018-11-26T01:55:55.292Z,95.70
2018-11-26T01:58:26.441Z,95.95
2018-11-26T02:00:56.691Z,95.65
2018-11-26T02:03:27.075Z,96.82
2018-11-26T02:05:58.311Z,96.57
2018-11-26T02:08:29.698Z,96.12
2018-11-26T02:11:00.060Z,97.07
2018-11-26T02:13:30.206Z,96.62
2018-11-26T02:16:01.936Z,96.29
2018-11-26T02:18:32.366Z,96.17
2018-11-26T02:21:02.621Z,97.19
2018-11-26T02:23:32.964Z,97.64
2018-11-26T02:26:08.804Z,97.49
2018-11-26T02:28:39.261Z,98.10
2018-11-26T02:31:09.494Z,98.37
2018-11-26T02:33:39.742Z,97.35
2018-11-26T02:36:10.021Z,96.25
2018-11-26T02:38:40.244Z,94.43
2018-11-26T02:41:11.169Z,93.13
2018-11-26T02:43:41.548Z,93.08
2018-11-26T02:46:12.630Z,92.84
2018-11-26T02:48:42.979Z,93.31
2018-11-26T02:51:13.170Z,92.99
2018-11-26T02:53:43.218Z,93.13
2018-11-26T02:56:13.559Z,92.70
2018-11-26T02:58:44.084Z,93.01
2018-11-26T03:01:14.344Z,91.85
2018-11-26T03:03:44.052Z,92.07
2018-11-26T03:06:13.893Z,92.21
2018-11-26T03:08:43.735Z,92.47
2018-11-26T03:11:13.503Z,92.73
2018-11-26T03:13:43.755Z,92.68
2018-11-26T03:16:13.992Z,92.39
2018-11-26T03:18:45.148Z,93.22
2018-11-26T03:21:15.279Z,93.91
2018-11-26T03:23:46.279Z,93.65
2018-11-26T03:26:16.911Z,93.31
2018-11-26T03:28:47.419Z,92.68
2018-11-26T03:31:17.494Z,93.58
2018-11-26T03:33:48.045Z,93.97
2018-11-26T03:36:18.519Z,94.21
2018-11-26T03:38:56.191Z,94.40
2018-11-26T03:41:26.713Z,94.63
2018-11-26T03:43:56.812Z,95.09
2018-11-26T03:46:27.144Z,94.85
2018-11-26T03:48:58.414Z,95.25
2018-11-26T03:51:28.709Z,94.59
2018-11-26T03:53:58.534Z,94.50
2018-11-26T03:56:28.916Z,94.30
2018-11-26T03:58:59.525Z,93.89
2018-11-26T04:01:29.606Z,93.88
2018-11-26T04:04:00.630Z,94.02
2018-11-26T04:06:30.925Z,94.14
2018-11-26T04:09:00.979Z,93.96
2018-11-26T04:11:31.091Z,94.80
2018-11-26T04:14:01.560Z,95.89
2018-11-26T04:16:31.732Z,97.00
2018-11-26T04:19:01.662Z,97.56
2018-11-26T04:21:31.759Z,97.74
2018-11-26T04:24:01.685Z,98.32
2018-11-26T04:26:31.680Z,98.93
2018-11-26T04:29:01.845Z,99.07
2018-11-26T04:31:32.123Z,98.80
2018-11-26T04:34:02.425Z,99.51
2018-11-26T04:36:32.468Z,99.25
2018-11-26T04:39:02.729Z,99.98
2018-11-26T04:41:32.943Z,100.00
2018-11-26T04:44:04.078Z,100.00
2018-11-26T04:46:34.134Z,100.00
2018-11-26T04:49:04.483Z,100.00
2018-11-26T04:51:34.804Z,100.00
2018-11-26T04:54:05.026Z,100.00
2018-11-26T04:56:35.002Z,100.00
2018-11-26T04:59:04.961Z,100.00
2018-11-26T05:01:36.972Z,100.00
2018-11-26T05:04:07.376Z,100.00
2018-11-26T05:06:37.583Z,100.00
2018-11-26T05:09:10.043Z,100.00
2018-11-26T05:11:40.692Z,100.00
2018-11-26T05:14:10.727Z,100.00
2018-11-26T05:16:40.856Z,100.00
2018-11-26T05:19:11.901Z,100.00
2018-11-26T05:21:42.070Z,100.00
2018-11-26T05:24:12.346Z,100.00
2018-11-26T05:26:42.550Z,100.00
2018-11-26T05:29:12.530Z,99.92
2018-11-26T05:31:44.676Z,99.89
2018-11-26T05:34:14.644Z,98.82
2018-11-26T05:36:44.736Z,97.64
2018-11-26T05:39:14.901Z,98.06
2018-11-26T05:41:49.881Z,98.29
2018-11-26T05:44:20.052Z,97.79
2018-11-26T05:46:49.769Z,98.10
2018-11-26T05:49:19.680Z,96.82
2018-11-26T05:51:49.888Z,96.48
2018-11-26T05:54:20.060Z,96.56
2018-11-26T05:56:50.252Z,95.44
2018-11-26T05:59:20.505Z,95.34
2018-11-26T06:01:51.488Z,95.79
2018-11-26T06:04:21.448Z,96.22
2018-11-26T06:06:51.753Z,94.60
2018-11-26T06:09:22.030Z,94.54
2018-11-26T06:11:52.371Z,93.97
2018-11-26T06:14:25.288Z,93.69
2018-11-26T06:16:55.805Z,93.73
2018-11-26T06:19:27.446Z,92.81
2018-11-26T06:21:57.549Z,93.39
2018-11-26T06:24:27.329Z,93.49
2018-11-26T06:26:57.131Z,92.74
2018-11-26T06:29:26.761Z,91.16
2018-11-26T06:31:56.483Z,90.73
2018-11-26T06:34:26.239Z,90.30
2018-11-26T06:36:55.962Z,90.51
2018-11-26T06:39:25.716Z,90.23
2018-11-26T06:41:56.829Z,89.66
2018-11-26T06:44:27.237Z,89.21
2018-11-26T06:46:57.761Z,89.44
2018-11-26T06:49:28.318Z,89.86
2018-11-26T06:51:58.672Z,90.83
2018-11-26T06:54:28.826Z,91.99
2018-11-26T06:56:58.883Z,92.55
2018-11-26T06:59:29.277Z,92.96
2018-11-26T07:01:59.431Z,92.94
2018-11-26T07:04:29.632Z,95.00
2018-11-26T07:06:59.331Z,96.45
2018-11-26T07:09:31.197Z,97.09
2018-11-26T07:12:00.971Z,97.58
2018-11-26T07:14:30.835Z,97.27
2018-11-26T07:17:00.765Z,97.09
2018-11-26T07:19:30.458Z,96.84
2018-11-26T07:22:00.266Z,96.85
2018-11-26T07:24:29.970Z,96.74
2018-11-26T07:26:59.754Z,96.85
2018-11-26T07:29:29.410Z,96.52
2018-11-26T07:31:59.265Z,97.00
2018-11-26T07:34:29.031Z,97.64
2018-11-26T07:36:58.855Z,97.76
2018-11-26T07:39:28.556Z,97.08
2018-11-26T07:41:58.275Z,97.32
2018-11-26T07:44:28.054Z,97.93
2018-11-26T07:46:57.850Z,98.81
2018-11-26T07:49:27.626Z,98.75
2018-11-26T07:51:57.357Z,98.85
2018-11-26T07:54:27.017Z,98.89
2018-11-26T07:56:57.014Z,99.05
2018-11-26T07:59:27.141Z,98.43
2018-11-26T08:01:58.024Z,98.20
2018-11-26T08:04:28.253Z,98.78
2018-11-26T08:06:58.302Z,99.37
2018-11-26T08:09:28.023Z,100.00
2018-11-26T08:11:58.056Z,100.00
2018-11-26T08:14:28.641Z,100.00
2018-11-26T08:16:58.917Z,100.00
2018-11-26T08:19:29.045Z,100.00
2018-11-26T08:22:01.529Z,100.00
2018-11-26T08:24:31.585Z,100.00
2018-11-26T08:27:01.756Z,100.00
2018-11-26T08:29:31.854Z,100.00
2018-11-26T08:32:01.927Z,100.00
2018-11-26T08:34:32.326Z,100.00
2018-11-26T08:37:10.587Z,100.00
2018-11-26T08:39:45.112Z,100.00
2018-11-26T08:42:20.336Z,100.00
2018-11-26T08:44:55.765Z,100.00
2018-11-26T08:47:31.035Z,100.00
2018-11-26T08:50:01.224Z,100.00
2018-11-26T08:52:31.421Z,100.00
2018-11-26T08:55:01.637Z,100.00
2018-11-26T08:57:31.609Z,100.00
2018-11-26T09:00:01.694Z,100.00
2018-11-26T09:02:32.876Z,100.00
2018-11-26T09:05:07.630Z,100.00
2018-11-26T09:07:37.821Z,100.00
2018-11-26T09:10:08.596Z,100.00
2018-11-26T09:12:39.941Z,100.00
2018-11-26T09:15:11.868Z,100.00
2018-11-26T09:17:41.928Z,100.00
2018-11-26T09:20:13.133Z,100.00
2018-11-26T09:22:43.758Z,100.00
2018-11-26T09:25:14.159Z,100.00
2018-11-26T09:27:44.243Z,100.00
2018-11-26T09:30:16.053Z,100.00
2018-11-26T09:32:46.341Z,100.00
2018-11-26T09:35:17.919Z,100.00
2018-11-26T09:37:47.979Z,100.00
2018-11-26T09:40:18.558Z,100.00
2018-11-26T09:42:48.407Z,100.00
2018-11-26T09:45:19.998Z,100.00
2018-11-26T09:47:50.444Z,100.00
2018-11-26T09:50:22.649Z,100.00
2018-11-26T09:52:52.766Z,100.00
2018-11-26T09:55:23.215Z,100.00
2018-11-26T09:57:53.330Z,100.00
2018-11-26T10:00:23.503Z,100.00
2018-11-26T10:02:54.058Z,100.00
2018-11-26T10:05:25.092Z,100.00
2018-11-26T10:07:55.290Z,100.00
2018-11-26T10:10:25.491Z,100.00
2018-11-26T10:12:55.705Z,100.00
2018-11-26T10:15:27.520Z,100.00
2018-11-26T10:17:58.999Z,100.00
2018-11-26T10:20:29.091Z,100.00
2018-11-26T10:22:59.269Z,100.00
2018-11-26T10:25:29.597Z,100.00
2018-11-26T10:27:59.806Z,100.00
2018-11-26T10:30:30.775Z,100.00
2018-11-26T10:33:01.011Z,100.00
2018-11-26T10:35:31.505Z,100.00
2018-11-26T10:38:01.587Z,100.00
2018-11-26T10:40:31.940Z,100.00
2018-11-26T10:43:03.429Z,100.00
2018-11-26T10:45:33.516Z,100.00
2018-11-26T10:48:03.964Z,100.00
2018-11-26T10:50:34.200Z,100.00
2018-11-26T10:53:04.774Z,100.00
2018-11-26T10:55:35.824Z,100.00
2018-11-26T10:58:06.209Z,100.00
2018-11-26T11:00:42.259Z,100.00
2018-11-26T11:03:12.816Z,100.00
2018-11-26T11:05:43.137Z,100.00
2018-11-26T11:08:14.250Z,100.00
2018-11-26T11:10:45.123Z,100.00
2018-11-26T11:13:15.479Z,100.00
2018-11-26T11:15:46.205Z,100.00
2018-11-26T11:18:16.465Z,100.00
2018-11-26T11:20:46.633Z,100.00
2018-11-26T11:23:16.887Z,100.00
2018-11-26T11:25:47.093Z,100.00
2018-11-26T11:28:19.315Z,100.00
2018-11-26T11:30:49.561Z,100.00
2018-11-26T11:35:49.695Z,100.00
2018-11-26T11:38:19.918Z,100.00
2018-11-26T11:40:50.076Z,100.00
2018-11-26T11:43:20.421Z,100.00
2018-11-26T11:45:50.481Z,100.00
2018-11-26T11:48:21.270Z,100.00
2018-11-26T11:50:51.969Z,100.00
2018-11-26T11:53:22.625Z,100.00
2018-11-26T11:55:55.763Z,100.00
2018-11-26T11:58:27.055Z,100.00
2018-11-26T12:00:57.544Z,100.00
2018-11-26T12:03:27.718Z,100.00
2018-11-26T12:05:58.038Z,100.00
2018-11-26T12:08:28.497Z,100.00
2018-11-26T12:10:58.907Z,100.00
2018-11-26T12:13:29.160Z,100.00
2018-11-26T12:15:59.346Z,100.00
2018-11-26T12:18:29.638Z,100.00
2018-11-26T12:20:59.849Z,100.00
2018-11-26T12:23:31.211Z,100.00
2018-11-26T12:26:04.703Z,100.00
2018-11-26T12:28:38.718Z,100.00
2018-11-26T12:31:12.853Z,100.00
2018-11-26T12:33:46.307Z,100.00
2018-11-26T12:36:20.227Z,100.00
2018-11-26T12:38:50.488Z,100.00
2018-11-26T12:41:20.753Z,100.00
2018-11-26T12:43:51.074Z,100.00
2018-11-26T12:46:21.581Z,100.00
2018-11-26T12:48:51.940Z,100.00
2018-11-26T12:51:22.278Z,100.00
2018-11-26T12:53:52.601Z,100.00
2018-11-26T12:56:22.936Z,100.00
2018-11-26T12:58:53.128Z,100.00
2018-11-26T13:01:23.429Z,100.00
2018-11-26T13:03:53.872Z,100.00
2018-11-26T13:06:24.165Z,100.00
2018-11-26T13:08:54.384Z,100.00
2018-11-26T13:11:25.012Z,100.00
2018-11-26T13:13:55.434Z,100.00
2018-11-26T13:16:25.520Z,100.00
2018-11-26T13:18:55.954Z,100.00
2018-11-26T13:21:26.326Z,100.00
2018-11-26T13:23:56.745Z,100.00
2018-11-26T13:26:27.780Z,100.00
2018-11-26T13:28:58.215Z,100.00
2018-11-26T13:31:28.306Z,100.00
2018-11-26T13:33:58.606Z,100.00
2018-11-26T13:36:29.663Z,100.00
2018-11-26T13:38:59.746Z,100.00
2018-11-26T13:41:29.925Z,100.00
2018-11-26T13:44:00.353Z,100.00
2018-11-26T13:46:30.683Z,100.00
2018-11-26T13:49:01.069Z,100.00
2018-11-26T13:51:31.488Z,100.00
2018-11-26T13:54:01.626Z,100.00
2018-11-26T13:56:31.843Z,100.00
2018-11-26T13:59:02.137Z,100.00
2018-11-26T14:01:32.733Z,100.00
2018-11-26T14:04:03.155Z,100.00
2018-11-26T14:06:34.030Z,100.00
2018-11-26T14:09:05.140Z,100.00
2018-11-26T14:11:35.534Z,100.00
2018-11-26T14:14:05.757Z,100.00
2018-11-26T14:16:35.872Z,100.00
2018-11-26T14:19:07.326Z,100.00
2018-11-26T14:21:37.220Z,100.00
2018-11-26T14:24:07.948Z,100.00
2018-11-26T14:26:38.142Z,100.00
2018-11-26T14:29:08.647Z,100.00
2018-11-26T14:31:38.918Z,100.00
2018-11-26T14:34:09.236Z,100.00
2018-11-26T14:36:39.432Z,100.00
2018-11-26T14:39:11.157Z,100.00
2018-11-26T14:41:41.926Z,100.00
2018-11-26T14:44:12.515Z,100.00
2018-11-26T14:46:43.543Z,100.00
2018-11-26T14:49:14.580Z,100.00
2018-11-26T14:51:45.172Z,100.00
2018-11-26T14:54:16.331Z,100.00
2018-11-26T14:56:47.002Z,100.00
2018-11-26T14:59:17.340Z,100.00
2018-11-26T15:01:48.311Z,100.00
2018-11-26T15:04:19.816Z,100.00
2018-11-26T15:06:50.217Z,100.00
2018-11-26T15:09:20.510Z,100.00
2018-11-26T15:11:51.539Z,100.00
2018-11-26T15:14:22.026Z,100.00
2018-11-26T15:16:52.681Z,100.00
2018-11-26T15:19:24.385Z,100.00
2018-11-26T15:21:55.632Z,100.00
2018-11-26T15:24:25.906Z,100.00
2018-11-26T15:26:55.634Z,100.00
2018-11-26T15:29:25.854Z,100.00
2018-11-26T15:31:56.278Z,100.00
2018-11-26T15:34:25.981Z,100.00
2018-11-26T15:36:57.975Z,100.00
2018-11-26T15:39:27.841Z,100.00
2018-11-26T15:41:57.634Z,100.00
2018-11-26T15:44:27.258Z,100.00
2018-11-26T15:46:57.111Z,100.00
2018-11-26T15:49:27.709Z,100.00
2018-11-26T15:51:57.476Z,100.00
2018-11-26T15:54:27.239Z,100.00
2018-11-26T15:56:57.078Z,100.00
2018-11-26T15:59:26.633Z,100.00
2018-11-26T16:01:56.696Z,100.00
2018-11-26T16:04:28.458Z,100.00
2018-11-26T16:06:58.576Z,100.00
2018-11-26T16:09:28.957Z,100.00
2018-11-26T16:11:59.168Z,100.00
2018-11-26T16:14:29.149Z,100.00
2018-11-26T16:16:58.948Z,100.00
2018-11-26T16:19:28.741Z,100.00
2018-11-26T16:21:58.959Z,100.00
2018-11-26T16:24:28.927Z,100.00
2018-11-26T16:26:59.361Z,100.00
2018-11-26T16:29:29.766Z,100.00
2018-11-26T16:32:00.472Z,100.00
2018-11-26T16:34:30.998Z,100.00
2018-11-26T16:37:01.541Z,100.00
2018-11-26T16:39:31.987Z,100.00
2018-11-26T16:42:01.995Z,100.00
2018-11-26T16:44:31.792Z,100.00
2018-11-26T16:47:01.944Z,100.00
2018-11-26T16:49:31.539Z,100.00
2018-11-26T16:52:01.429Z,100.00
2018-11-26T16:54:31.302Z,100.00
2018-11-26T16:57:01.120Z,100.00
2018-11-26T16:59:31.391Z,100.00
2018-11-26T17:02:01.468Z,100.00
2018-11-26T17:04:31.721Z,100.00
2018-11-26T17:07:02.746Z,100.00
2018-11-26T17:09:32.884Z,100.00
2018-11-26T17:12:03.355Z,100.00
2018-11-26T17:14:34.847Z,100.00
2018-11-26T17:17:06.234Z,100.00
2018-11-26T17:19:36.624Z,100.00
2018-11-26T17:22:07.837Z,100.00
2018-11-26T17:24:37.658Z,100.00
2018-11-26T17:27:08.375Z,100.00
2018-11-26T17:29:39.790Z,100.00
2018-11-26T17:32:09.748Z,100.00
2018-11-26T17:34:39.563Z,100.00
2018-11-26T17:37:09.404Z,100.00
2018-11-26T17:39:39.257Z,100.00
2018-11-26T17:42:11.309Z,100.00
2018-11-26T17:44:41.556Z,100.00
2018-11-26T17:47:12.190Z,100.00
2018-11-26T17:49:42.173Z,100.00
2018-11-26T17:52:13.141Z,100.00
2018-11-26T17:54:43.681Z,100.00
2018-11-26T17:57:13.864Z,100.00
2018-11-26T17:59:44.940Z,100.00
2018-11-26T18:02:14.677Z,100.00
2018-11-26T18:04:44.910Z,100.00
2018-11-26T18:07:14.825Z,100.00
2018-11-26T18:09:45.035Z,100.00
2018-11-26T18:12:15.352Z,100.00
2018-11-26T18:14:45.849Z,100.00
2018-11-26T18:17:17.104Z,100.00
2018-11-26T18:19:47.441Z,100.00
2018-11-26T18:22:17.421Z,100.00
2018-11-26T18:24:47.989Z,100.00
2018-11-26T18:27:18.319Z,100.00
2018-11-26T18:29:48.577Z,100.00
2018-11-26T18:32:22.533Z,100.00
2018-11-26T18:34:53.126Z,100.00
2018-11-26T18:37:23.010Z,100.00
2018-11-26T18:39:52.752Z,100.00
2018-11-26T18:42:22.513Z,100.00
2018-11-26T18:44:52.474Z,100.00
2018-11-26T18:47:23.294Z,100.00
2018-11-26T18:49:53.534Z,100.00
2018-11-26T18:52:23.843Z,100.00
2018-11-26T18:55:02.050Z,100.00
2018-11-26T18:57:32.683Z,100.00
2018-11-26T19:00:14.509Z,100.00
2018-11-26T19:02:44.940Z,100.00
2018-11-26T19:05:16.001Z,100.00
2018-11-26T19:07:46.769Z,100.00
2018-11-26T19:10:22.769Z,100.00
2018-11-26T19:12:57.346Z,100.00
2018-11-26T19:15:30.267Z,100.00
2018-11-26T19:18:11.171Z,100.00
2018-11-26T19:20:41.398Z,100.00
2018-11-26T19:23:11.853Z,100.00
2018-11-26T19:25:42.033Z,100.00
2018-11-26T19:28:12.336Z,100.00
2018-11-26T19:30:42.721Z,100.00
2018-11-26T19:33:13.263Z,100.00
2018-11-26T19:35:50.601Z,100.00
2018-11-26T19:38:22.195Z,100.00
2018-11-26T19:40:56.297Z,100.00
2018-11-26T19:43:28.149Z,100.00
2018-11-26T19:46:00.124Z,100.00
2018-11-26T19:48:33.021Z,100.00
2018-11-26T19:51:03.837Z,100.00
2018-11-26T19:53:40.431Z,100.00
2018-11-26T19:56:11.149Z,100.00
2018-11-26T19:58:42.056Z,100.00
2018-11-26T20:01:12.146Z,100.00
2018-11-26T20:03:44.663Z,100.00
2018-11-26T20:06:24.448Z,100.00
2018-11-26T20:08:58.762Z,100.00
2018-11-26T20:11:33.309Z,100.00
2018-11-26T20:14:04.587Z,100.00
2018-11-26T20:16:40.788Z,100.00
2018-11-26T20:19:11.147Z,100.00
2018-11-26T20:21:44.166Z,100.00
2018-11-26T20:24:14.930Z,100.00
2018-11-26T20:26:46.910Z,100.00
2018-11-26T20:29:16.990Z,100.00
2018-11-26T20:31:47.897Z,100.00
2018-11-26T20:34:18.436Z,100.00
2018-11-26T20:36:49.411Z,100.00
2018-11-26T20:39:19.619Z,100.00
2018-11-26T20:41:50.647Z,100.00
2018-11-26T20:44:22.162Z,100.00
2018-11-26T20:46:52.378Z,100.00
2018-11-26T20:49:22.400Z,100.00
2018-11-26T20:51:52.728Z,100.00
2018-11-26T20:54:23.797Z,100.00
2018-11-26T20:56:53.643Z,100.00
2018-11-26T20:59:23.557Z,100.00
2018-11-26T21:01:53.584Z,100.00
2018-11-26T21:04:23.786Z,100.00
2018-11-26T21:06:54.566Z,100.00
2018-11-26T21:09:24.593Z,100.00
2018-11-26T21:11:54.529Z,100.00
2018-11-26T21:14:24.641Z,100.00
2018-11-26T21:16:54.565Z,100.00
2018-11-26T21:19:24.729Z,100.00
2018-11-26T21:21:54.905Z,100.00
2018-11-26T21:24:24.831Z,100.00
2018-11-26T21:26:54.856Z,100.00
2018-11-26T21:29:27.034Z,100.00
2018-11-26T21:31:57.711Z,100.00
2018-11-26T21:34:28.200Z,100.00
2018-11-26T21:36:58.459Z,100.00
2018-11-26T21:39:28.991Z,100.00
2018-11-26T21:41:59.186Z,100.00
2018-11-26T21:44:29.292Z,100.00
2018-11-26T21:46:59.374Z,100.00
2018-11-26T21:49:29.362Z,100.00
2018-11-26T21:51:59.449Z,100.00
2018-11-26T21:54:29.386Z,100.00
2018-11-26T21:56:59.407Z,100.00
2018-11-26T21:59:29.495Z,100.00
2018-11-26T22:01:59.514Z,100.00
2018-11-26T22:04:29.508Z,100.00
2018-11-26T22:07:00.428Z,100.00
2018-11-26T22:09:30.936Z,100.00
2018-11-26T22:12:04.753Z,100.00
2018-11-26T22:14:35.503Z,100.00
2018-11-26T22:17:06.127Z,100.00
2018-11-26T22:19:36.767Z,100.00
2018-11-26T22:22:07.591Z,100.00
2018-11-26T22:24:38.186Z,100.00
2018-11-26T22:27:08.872Z,100.00
2018-11-26T22:29:40.237Z,100.00
2018-11-26T22:32:12.581Z,100.00
2018-11-26T22:34:43.174Z,100.00
2018-11-26T22:37:16.370Z,100.00
2018-11-26T22:39:46.667Z,100.00
2018-11-26T22:42:16.987Z,100.00
2018-11-26T22:44:47.255Z,100.00
2018-11-26T22:47:17.617Z,100.00
2018-11-26T22:49:47.630Z,100.00
2018-11-26T22:52:19.395Z,100.00
2018-11-26T22:54:49.533Z,100.00
2018-11-26T22:57:20.710Z,100.00
2018-11-26T22:59:51.076Z,100.00
2018-11-26T23:02:21.331Z,100.00
2018-11-26T23:04:56.586Z,100.00
2018-11-26T23:07:30.510Z,100.00
2018-11-26T23:10:00.714Z,100.00
2018-11-26T23:12:31.886Z,100.00
2018-11-26T23:15:02.269Z,100.00
2018-11-26T23:17:38.039Z,100.00
2018-11-26T23:20:10.193Z,100.00
2018-11-26T23:22:40.508Z,100.00
2018-11-26T23:25:11.725Z,100.00
2018-11-26T23:27:42.326Z,100.00
2018-11-26T23:30:20.590Z,100.00
2018-11-26T23:33:03.497Z,100.00
2018-11-26T23:35:33.528Z,100.00
2018-11-26T23:38:03.430Z,100.00
2018-11-26T23:40:35.629Z,100.00
2018-11-26T23:43:05.455Z,100.00
2018-11-26T23:45:35.228Z,100.00
2018-11-26T23:48:05.152Z,100.00
2018-11-26T23:50:36.986Z,100.00
2018-11-26T23:53:07.737Z,100.00
2018-11-26T23:55:37.419Z,100.00
2018-11-26T23:58:07.408Z,100.00
